createdAt,value
2018-12-16T00:02:18.031Z,101202.47
2018-12-16T00:04:46.685Z,101190.75
2018-12-16T00:07:06.752Z,101196.68
2018-12-16T00:09:29.899Z,101181.72
2018-12-16T00:11:53.030Z,101182.43
2018-12-16T00:14:16.161Z,101035.95
2018-12-16T00:16:39.330Z,101186.41
2018-12-16T00:19:02.503Z,101186.90
2018-12-16T00:21:25.659Z,101181.28
2018-12-16T00:23:48.791Z,101163.13
2018-12-16T00:26:12.153Z,101159.73
2018-12-16T00:28:35.302Z,101155.44
2018-12-16T00:30:58.442Z,101160.34
2018-12-16T00:33:21.583Z,101152.95
2018-12-16T00:35:44.715Z,101150.16
2018-12-16T00:38:07.822Z,101146.44
2018-12-16T00:40:30.968Z,101149.30
2018-12-16T00:42:54.085Z,101144.83
2018-12-16T00:45:17.279Z,101143.55
2018-12-16T00:47:40.404Z,101148.81
2018-12-16T00:50:04.141Z,101155.58
2018-12-16T00:52:27.358Z,101160.14
2018-12-16T00:54:50.528Z,101156.61
2018-12-16T00:57:13.630Z,101156.61
2018-12-16T00:59:36.777Z,101159.03
2018-12-16T01:01:59.890Z,101163.98
2018-12-16T01:04:23.159Z,101158.41
2018-12-16T01:06:46.331Z,101161.89
2018-12-16T01:09:09.451Z,101163.98
2018-12-16T01:11:32.678Z,101154.06
2018-12-16T01:13:55.801Z,101146.57
2018-12-16T01:16:18.930Z,101147.05
2018-12-16T01:18:42.102Z,101140.39
2018-12-16T01:21:05.733Z,101146.43
2018-12-16T01:23:29.656Z,101138.31
2018-12-16T01:25:52.765Z,101139.02
2018-12-16T01:28:15.927Z,101129.95
2018-12-16T01:30:39.035Z,101130.87
2018-12-16T01:33:02.557Z,101130.73
2018-12-16T01:35:25.762Z,101139.37
2018-12-16T01:37:48.859Z,101129.36
2018-12-16T01:40:12.076Z,101127.84
2018-12-16T01:42:36.090Z,101132.18
2018-12-16T01:44:59.235Z,101122.02
2018-12-16T01:47:22.357Z,101124.38
2018-12-16T01:49:45.496Z,101113.50
2018-12-16T01:52:08.645Z,101110.58
2018-12-16T01:54:31.763Z,101107.05
2018-12-16T01:56:54.990Z,101104.75
2018-12-16T01:59:18.122Z,101093.28
2018-12-16T02:01:43.181Z,101090.67
2018-12-16T02:04:06.351Z,101083.01
2018-12-16T02:06:29.474Z,101078.77
2018-12-16T02:08:52.669Z,101075.89
2018-12-16T02:11:15.800Z,101068.82
2018-12-16T02:13:38.933Z,101056.63
2018-12-16T02:16:02.151Z,101060.38
2018-12-16T02:18:25.276Z,101054.56
2018-12-16T02:20:48.382Z,101045.43
2018-12-16T02:23:11.519Z,101038.17
2018-12-16T02:25:34.647Z,101032.77
2018-12-16T02:27:57.814Z,101026.05
2018-12-16T02:30:26.425Z,101029.20
2018-12-16T02:32:49.543Z,101017.55
2018-12-16T02:35:12.716Z,101017.03
2018-12-16T02:37:35.845Z,101015.93
2018-12-16T02:39:59.096Z,101005.23
2018-12-16T02:42:22.198Z,101003.98
2018-12-16T02:44:45.406Z,101003.00
2018-12-16T02:47:08.556Z,101001.02
2018-12-16T02:49:31.761Z,100996.76
2018-12-16T02:51:54.908Z,100998.58
2018-12-16T02:54:18.012Z,100992.20
2018-12-16T02:56:41.162Z,100980.03
2018-12-16T02:59:04.324Z,100984.25
2018-12-16T03:01:28.416Z,100979.95
2018-12-16T03:03:51.551Z,100969.11
2018-12-16T03:06:14.671Z,100966.11
2018-12-16T03:08:37.823Z,100965.33
2018-12-16T03:11:00.986Z,100955.99
2018-12-16T03:13:24.123Z,100953.41
2018-12-16T03:15:47.244Z,100948.86
2018-12-16T03:18:10.382Z,100939.36
2018-12-16T03:20:33.505Z,100938.70
2018-12-16T03:22:56.670Z,100928.51
2018-12-16T03:25:19.817Z,100928.97
2018-12-16T03:27:42.979Z,100920.98
2018-12-16T03:30:08.969Z,100917.81
2018-12-16T03:32:32.101Z,100920.77
2018-12-16T03:34:55.329Z,100911.75
2018-12-16T03:37:18.439Z,100920.77
2018-12-16T03:39:41.597Z,100840.20
2018-12-16T03:42:04.819Z,100900.73
2018-12-16T03:44:28.012Z,100897.55
2018-12-16T03:46:51.197Z,100888.83
2018-12-16T03:49:14.307Z,100889.34
2018-12-16T03:51:37.479Z,100873.80
2018-12-16T03:54:00.596Z,100877.17
2018-12-16T03:56:23.710Z,100869.21
2018-12-16T03:58:58.643Z,100865.80
2018-12-16T04:01:21.817Z,100860.30
2018-12-16T04:03:44.989Z,100862.20
2018-12-16T04:06:08.094Z,100867.05
2018-12-16T04:08:31.256Z,100860.36
2018-12-16T04:10:54.372Z,100856.59
2018-12-16T04:13:17.473Z,100847.56
2018-12-16T04:15:40.608Z,100836.90
2018-12-16T04:18:03.732Z,100828.62
2018-12-16T04:20:26.865Z,100817.67
2018-12-16T04:22:49.964Z,100802.05
2018-12-16T04:25:13.167Z,100797.20
2018-12-16T04:27:37.368Z,100798.41
2018-12-16T04:30:00.474Z,100790.37
2018-12-16T04:32:24.284Z,100793.19
2018-12-16T04:34:47.397Z,100788.77
2018-12-16T04:37:10.593Z,100794.47
2018-12-16T04:39:33.709Z,100795.14
2018-12-16T04:41:56.802Z,100798.45
2018-12-16T04:44:19.927Z,100804.20
2018-12-16T04:46:43.056Z,100805.09
2018-12-16T04:49:06.177Z,100798.41
2018-12-16T04:51:29.313Z,100803.10
2018-12-16T04:53:52.544Z,100803.73
2018-12-16T04:56:15.661Z,100805.97
2018-12-16T04:58:38.909Z,100803.97
2018-12-16T05:01:02.006Z,100801.73
2018-12-16T05:03:25.151Z,100801.38
2018-12-16T05:05:48.312Z,100793.10
2018-12-16T05:08:11.425Z,100790.75
2018-12-16T05:10:34.616Z,100786.42
2018-12-16T05:12:57.809Z,100789.82
2018-12-16T05:15:20.991Z,100779.73
2018-12-16T05:17:44.102Z,100783.77
2018-12-16T05:20:07.284Z,100776.70
2018-12-16T05:22:30.399Z,100775.63
2018-12-16T05:24:53.564Z,100771.44
2018-12-16T05:27:16.698Z,100778.94
2018-12-16T05:29:39.973Z,100766.29
2018-12-16T05:32:03.104Z,100768.27
2018-12-16T05:34:26.265Z,100760.41
2018-12-16T05:36:49.371Z,100762.23
2018-12-16T05:39:12.477Z,100754.81
2018-12-16T05:41:35.642Z,100747.39
2018-12-16T05:43:58.746Z,100739.48
2018-12-16T05:46:21.885Z,100728.84
2018-12-16T05:48:44.997Z,100724.09
2018-12-16T05:51:08.135Z,100710.98
2018-12-16T05:53:31.256Z,100707.20
2018-12-16T05:55:54.428Z,100703.84
2018-12-16T05:58:17.561Z,100702.58
2018-12-16T06:00:40.672Z,100702.64
2018-12-16T06:03:03.851Z,100698.50
2018-12-16T06:05:27.027Z,100693.11
2018-12-16T06:07:50.165Z,100689.58
2018-12-16T06:10:13.294Z,100696.56
2018-12-16T06:12:36.442Z,100695.08
2018-12-16T06:14:59.554Z,100698.08
2018-12-16T06:17:22.678Z,100698.96
2018-12-16T06:19:45.867Z,100698.41
2018-12-16T06:22:08.966Z,100701.87
2018-12-16T06:24:32.100Z,100699.22
2018-12-16T06:26:55.241Z,100707.09
2018-12-16T06:29:18.397Z,100705.16
2018-12-16T06:31:41.522Z,100701.37
2018-12-16T06:34:04.642Z,100695.27
2018-12-16T06:36:27.798Z,100697.77
2018-12-16T06:38:50.884Z,100701.14
2018-12-16T06:41:14.002Z,100702.30
2018-12-16T06:43:37.141Z,100699.02
2018-12-16T06:46:00.279Z,100699.84
2018-12-16T06:48:23.418Z,100695.52
2018-12-16T06:50:46.525Z,100696.31
2018-12-16T06:53:09.648Z,100693.84
2018-12-16T06:55:32.836Z,100703.48
2018-12-16T06:57:55.964Z,100702.06
2018-12-16T07:00:19.107Z,100691.33
2018-12-16T07:02:42.286Z,100687.58
2018-12-16T07:05:05.502Z,100690.63
2018-12-16T07:07:28.652Z,100694.12
2018-12-16T07:09:51.767Z,100691.69
2018-12-16T07:12:14.907Z,100687.30
2018-12-16T07:14:38.062Z,100691.80
2018-12-16T07:17:01.282Z,100683.61
2018-12-16T07:19:24.534Z,100680.25
2018-12-16T07:21:47.643Z,100677.34
2018-12-16T07:24:10.815Z,100678.26
2018-12-16T07:26:34.046Z,100676.52
2018-12-16T07:28:57.253Z,100678.30
2018-12-16T07:31:20.389Z,100676.22
2018-12-16T07:33:44.570Z,100676.53
2018-12-16T07:36:08.078Z,100674.11
2018-12-16T07:38:31.186Z,100675.39
2018-12-16T07:40:54.337Z,100680.75
2018-12-16T07:43:17.567Z,100681.70
2018-12-16T07:45:40.778Z,100677.84
2018-12-16T07:48:04.106Z,100680.95
2018-12-16T07:50:27.238Z,100679.95
2018-12-16T07:52:50.384Z,100671.55
2018-12-16T07:55:13.502Z,100666.62
2018-12-16T07:57:36.635Z,100658.63
2018-12-16T07:59:59.775Z,100658.09
2018-12-16T08:02:23.062Z,100654.62
2018-12-16T08:04:46.202Z,100653.45
2018-12-16T08:07:09.338Z,100656.96
2018-12-16T08:09:33.301Z,100659.09
2018-12-16T08:11:56.410Z,100658.11
2018-12-16T08:14:20.493Z,100650.89
2018-12-16T08:16:43.624Z,100647.05
2018-12-16T08:19:07.195Z,100654.37
2018-12-16T08:21:30.529Z,100638.02
2018-12-16T08:23:53.656Z,100652.29
2018-12-16T08:26:16.781Z,100649.23
2018-12-16T08:28:39.921Z,100644.75
2018-12-16T08:31:03.029Z,100648.69
2018-12-16T08:33:26.212Z,100638.77
2018-12-16T08:35:49.329Z,100639.86
2018-12-16T08:38:12.456Z,100635.22
2018-12-16T08:40:35.609Z,100634.38
2018-12-16T08:42:58.735Z,100639.30
2018-12-16T08:45:21.917Z,100636.94
2018-12-16T08:47:45.057Z,100633.80
2018-12-16T08:50:08.212Z,100626.16
2018-12-16T08:52:31.350Z,100626.63
2018-12-16T08:54:54.499Z,100626.52
2018-12-16T08:57:17.639Z,100629.67
2018-12-16T08:59:40.784Z,100634.55
2018-12-16T09:02:03.898Z,100633.61
2018-12-16T09:04:27.031Z,100636.80
2018-12-16T09:06:51.175Z,100637.76
2018-12-16T09:09:14.430Z,100637.72
2018-12-16T09:11:37.551Z,100553.54
2018-12-16T09:14:00.683Z,100632.11
2018-12-16T09:16:24.615Z,100622.98
2018-12-16T09:18:47.725Z,100623.52
2018-12-16T09:21:10.912Z,100627.87
2018-12-16T09:23:34.034Z,100625.72
2018-12-16T09:25:57.140Z,100628.05
2018-12-16T09:28:20.268Z,100620.86
2018-12-16T09:30:43.377Z,100618.28
2018-12-16T09:33:06.532Z,100613.54
2018-12-16T09:35:29.704Z,100612.22
2018-12-16T09:37:52.878Z,100605.27
2018-12-16T09:40:16.012Z,100613.15
2018-12-16T09:42:39.124Z,100609.81
2018-12-16T09:45:02.279Z,100612.82
2018-12-16T09:47:25.452Z,100611.20
2018-12-16T09:49:48.719Z,100601.61
2018-12-16T09:52:11.826Z,100598.99
2018-12-16T09:54:34.941Z,100600.19
2018-12-16T09:56:58.096Z,100603.95
2018-12-16T09:59:21.252Z,100600.36
2018-12-16T10:01:44.527Z,100602.36
2018-12-16T10:04:07.726Z,100596.56
2018-12-16T10:06:30.915Z,100595.96
2018-12-16T10:08:54.068Z,100580.45
2018-12-16T10:11:17.221Z,100578.12
2018-12-16T10:13:40.360Z,100590.12
2018-12-16T10:16:03.572Z,100594.00
2018-12-16T10:18:26.695Z,100590.21
2018-12-16T10:20:49.872Z,100582.09
2018-12-16T10:23:12.999Z,100579.11
2018-12-16T10:25:36.277Z,100575.70
2018-12-16T10:27:59.403Z,100568.14
2018-12-16T10:30:22.559Z,100560.11
2018-12-16T10:32:45.690Z,100560.98
2018-12-16T10:35:08.821Z,100544.12
2018-12-16T10:37:32.093Z,100548.80
2018-12-16T10:39:55.227Z,100546.56
2018-12-16T10:42:18.377Z,100543.36
2018-12-16T10:44:41.564Z,100547.27
2018-12-16T10:47:04.701Z,100538.01
2018-12-16T10:49:27.828Z,100534.61
2018-12-16T10:51:50.956Z,100528.20
2018-12-16T10:54:14.141Z,100535.01
2018-12-16T10:56:37.246Z,100534.67
2018-12-16T10:59:00.451Z,100535.66
2018-12-16T11:01:28.449Z,100529.97
2018-12-16T11:03:51.560Z,100517.12
2018-12-16T11:06:14.689Z,100518.50
2018-12-16T11:08:38.268Z,100510.63
2018-12-16T11:11:01.412Z,100508.48
2018-12-16T11:13:24.651Z,100512.64
2018-12-16T11:15:47.802Z,100510.52
2018-12-16T11:18:10.936Z,100499.13
2018-12-16T11:20:34.120Z,100493.13
2018-12-16T11:22:57.234Z,100489.56
2018-12-16T11:25:20.459Z,100484.41
2018-12-16T11:27:43.545Z,100478.50
2018-12-16T11:30:07.474Z,100476.44
2018-12-16T11:32:30.620Z,100487.52
2018-12-16T11:34:53.827Z,100479.92
2018-12-16T11:37:17.032Z,100476.92
2018-12-16T11:39:40.176Z,100475.22
2018-12-16T11:42:03.359Z,100476.41
2018-12-16T11:44:27.330Z,100474.70
2018-12-16T11:46:50.520Z,100473.59
2018-12-16T11:49:13.688Z,100462.02
2018-12-16T11:51:37.269Z,100462.60
2018-12-16T11:54:00.413Z,100459.61
2018-12-16T11:56:23.574Z,100458.56
2018-12-16T11:58:46.693Z,100449.98
2018-12-16T12:01:09.861Z,100448.63
2018-12-16T12:03:33.023Z,100449.78
2018-12-16T12:05:56.195Z,100443.92
2018-12-16T12:08:19.331Z,100440.41
2018-12-16T12:10:42.449Z,100438.82
2018-12-16T12:13:05.611Z,100433.36
2018-12-16T12:15:28.748Z,100431.73
2018-12-16T12:17:51.920Z,100422.88
2018-12-16T12:22:34.074Z,100407.28
2018-12-16T12:24:57.229Z,100408.27
2018-12-16T12:27:20.335Z,100405.34
2018-12-16T12:29:43.521Z,100400.63
2018-12-16T12:32:06.666Z,100403.80
2018-12-16T12:34:29.831Z,100413.16
2018-12-16T12:36:53.139Z,100404.70
2018-12-16T12:39:16.251Z,100397.02
2018-12-16T12:41:39.355Z,100406.85
2018-12-16T12:44:02.614Z,100398.24
2018-12-16T12:46:25.800Z,100395.16
2018-12-16T12:48:48.929Z,100395.34
2018-12-16T12:51:12.165Z,100396.30
2018-12-16T12:53:35.276Z,100401.56
2018-12-16T12:55:58.394Z,100406.09
2018-12-16T12:58:21.547Z,100400.38
2018-12-16T13:00:44.683Z,100402.67
2018-12-16T13:03:07.932Z,100406.67
2018-12-16T13:05:36.854Z,100402.47
2018-12-16T13:07:56.209Z,100409.19
2018-12-16T13:10:19.362Z,100391.92
2018-12-16T13:12:42.536Z,100411.14
2018-12-16T13:15:05.977Z,100406.16
2018-12-16T13:17:29.108Z,100404.77
2018-12-16T13:19:52.407Z,100400.80
2018-12-16T13:22:15.638Z,100406.02
2018-12-16T13:24:46.531Z,100401.50
2018-12-16T13:27:09.694Z,100412.28
2018-12-16T13:29:32.840Z,100413.00
2018-12-16T13:31:56.137Z,100407.55
2018-12-16T13:34:19.272Z,100408.56
2018-12-16T13:36:42.412Z,100409.91
2018-12-16T13:39:06.369Z,100417.70
2018-12-16T13:41:29.490Z,100417.97
2018-12-16T13:43:52.616Z,100414.89
2018-12-16T13:46:15.766Z,100416.77
2018-12-16T13:48:38.893Z,100412.41
2018-12-16T13:51:02.033Z,100414.64
2018-12-16T13:53:25.145Z,100414.13
2018-12-16T13:55:48.294Z,100411.41
2018-12-16T13:58:11.461Z,100404.73
2018-12-16T14:00:34.577Z,100405.89
2018-12-16T14:02:57.828Z,100394.93
2018-12-16T14:05:21.019Z,100406.66
2018-12-16T14:07:44.146Z,100402.00
2018-12-16T14:10:07.408Z,100404.33
2018-12-16T14:12:30.551Z,100397.50
2018-12-16T14:14:53.806Z,100398.29
2018-12-16T14:19:49.847Z,100399.25
2018-12-16T14:22:13.018Z,100400.63
2018-12-16T14:24:36.164Z,100407.84
2018-12-16T14:26:59.390Z,100408.63
2018-12-16T14:29:22.565Z,100402.77
2018-12-16T14:31:45.692Z,100403.77
2018-12-16T14:34:08.866Z,100401.02
2018-12-16T14:36:31.995Z,100408.28
2018-12-16T14:38:55.188Z,100412.20
2018-12-16T14:41:18.379Z,100401.99
2018-12-16T14:43:41.629Z,100401.23
2018-12-16T14:46:04.925Z,100405.73
2018-12-16T14:48:28.072Z,100409.83
2018-12-16T14:50:51.236Z,100421.36
2018-12-16T14:53:14.352Z,100415.17
2018-12-16T14:55:37.545Z,100414.05
2018-12-16T14:58:00.663Z,100412.93
2018-12-16T15:00:23.768Z,100401.99
2018-12-16T15:02:46.965Z,100404.01
2018-12-16T15:05:10.153Z,100406.79
2018-12-16T15:07:33.377Z,100411.56
2018-12-16T15:09:56.523Z,100403.16
2018-12-16T15:12:20.536Z,100414.13
2018-12-16T15:14:43.859Z,100409.05
2018-12-16T15:17:06.967Z,100414.95
2018-12-16T15:19:30.188Z,100411.59
2018-12-16T15:21:53.334Z,100422.55
2018-12-16T15:24:16.466Z,100421.94
2018-12-16T15:26:39.656Z,100426.27
2018-12-16T15:29:02.773Z,100422.76
2018-12-16T15:31:25.947Z,100428.84
2018-12-16T15:33:49.115Z,100428.00
2018-12-16T15:36:12.234Z,100426.01
2018-12-16T15:38:35.368Z,100432.13
2018-12-16T15:40:58.542Z,100438.82
2018-12-16T15:43:21.669Z,100442.95
2018-12-16T15:45:44.844Z,100442.75
2018-12-16T15:48:08.018Z,100444.52
2018-12-16T15:50:31.164Z,100446.94
2018-12-16T15:52:54.327Z,100440.78
2018-12-16T15:55:17.459Z,100443.76
2018-12-16T15:57:40.626Z,100436.91
2018-12-16T16:00:06.255Z,100441.58
2018-12-16T16:02:29.389Z,100442.36
2018-12-16T16:04:52.546Z,100449.45
2018-12-16T16:07:15.686Z,100449.41
2018-12-16T16:09:38.887Z,100453.94
2018-12-16T16:12:02.074Z,100454.31
2018-12-16T16:14:25.255Z,100458.84
2018-12-16T16:16:48.387Z,100455.08
2018-12-16T16:19:11.595Z,100454.14
2018-12-16T16:21:34.797Z,100457.87
2018-12-16T16:23:59.109Z,100446.88
2018-12-16T16:26:22.236Z,100444.34
2018-12-16T16:28:45.397Z,100446.49
2018-12-16T16:31:08.613Z,100445.90
2018-12-16T16:33:31.950Z,100446.30
2018-12-16T16:35:55.229Z,100447.47
2018-12-16T16:38:18.365Z,100437.07
2018-12-16T16:40:41.661Z,100456.11
2018-12-16T16:43:04.802Z,100460.61
2018-12-16T16:45:27.962Z,100463.92
2018-12-16T16:47:51.083Z,100468.03
2018-12-16T16:50:14.331Z,100467.47
2018-12-16T16:52:37.456Z,100471.39
2018-12-16T16:55:00.581Z,100469.02
2018-12-16T16:57:23.781Z,100467.44
2018-12-16T16:59:46.889Z,100472.95
2018-12-16T17:02:10.010Z,100473.70
2018-12-16T17:04:33.287Z,100464.12
2018-12-16T17:06:56.465Z,100468.22
2018-12-16T17:09:19.562Z,100468.41
2018-12-16T17:11:42.850Z,100472.66
2018-12-16T17:14:06.006Z,100467.84
2018-12-16T17:16:29.206Z,100469.17
2018-12-16T17:18:52.856Z,100470.19
2018-12-16T17:21:16.067Z,100467.25
2018-12-16T17:23:39.231Z,100462.35
2018-12-16T17:26:02.430Z,100470.77
2018-12-16T17:28:25.594Z,100476.09
2018-12-16T17:30:48.745Z,100473.34
2018-12-16T17:33:11.870Z,100484.11
2018-12-16T17:35:35.116Z,100482.69
2018-12-16T17:37:58.332Z,100479.48
2018-12-16T17:40:21.448Z,100481.13
2018-12-16T17:42:44.610Z,100487.65
2018-12-16T17:45:08.341Z,100480.13
2018-12-16T17:47:31.544Z,100471.97
2018-12-16T17:49:54.668Z,100476.86
2018-12-16T17:52:17.792Z,100487.44
2018-12-16T17:54:40.937Z,100494.19
2018-12-16T17:57:04.139Z,100495.48
2018-12-16T17:59:27.279Z,100500.30
2018-12-16T18:01:50.743Z,100505.87
2018-12-16T18:04:13.899Z,100509.80
2018-12-16T18:06:37.124Z,100509.09
2018-12-16T18:09:00.292Z,100509.28
2018-12-16T18:11:24.615Z,100508.39
2018-12-16T18:13:47.755Z,100497.52
2018-12-16T18:16:10.898Z,100488.15
2018-12-16T18:18:34.025Z,100497.60
2018-12-16T18:20:58.068Z,100497.23
2018-12-16T18:23:21.220Z,100495.67
2018-12-16T18:25:44.359Z,100488.80
2018-12-16T18:28:07.613Z,100482.12
2018-12-16T18:30:30.730Z,100482.55
2018-12-16T18:32:53.914Z,100479.81
2018-12-16T18:35:17.091Z,100487.24
2018-12-16T18:37:40.375Z,100493.40
2018-12-16T18:40:04.644Z,100498.33
2018-12-16T18:42:27.748Z,100506.48
2018-12-16T18:44:50.916Z,100506.98
2018-12-16T18:47:14.528Z,100508.44
2018-12-16T18:49:37.646Z,100513.12
2018-12-16T18:52:00.809Z,100506.41
2018-12-16T18:54:24.191Z,100501.07
2018-12-16T18:56:51.076Z,100500.96
2018-12-16T18:59:12.458Z,100510.17
2018-12-16T19:01:35.614Z,100512.38
2018-12-16T19:03:58.849Z,100504.52
2018-12-16T19:06:22.001Z,100500.58
2018-12-16T19:08:45.179Z,100500.59
2018-12-16T19:11:08.304Z,100500.11
2018-12-16T19:13:31.485Z,100508.98
2018-12-16T19:15:54.622Z,100515.06
2018-12-16T19:18:18.126Z,100514.05
2018-12-16T19:20:41.267Z,100511.79
2018-12-16T19:23:04.430Z,100523.98
2018-12-16T19:25:27.563Z,100528.59
2018-12-16T19:27:50.748Z,100523.45
2018-12-16T19:30:13.883Z,100521.70
2018-12-16T19:32:37.052Z,100528.37
2018-12-16T19:35:00.181Z,100529.34
2018-12-16T19:37:23.602Z,100530.05
2018-12-16T19:39:46.769Z,100529.52
2018-12-16T19:42:09.909Z,100525.67
2018-12-16T19:44:33.195Z,100522.50
2018-12-16T19:46:56.374Z,100522.75
2018-12-16T19:49:19.518Z,100526.92
2018-12-16T19:51:42.662Z,100522.75
2018-12-16T19:54:06.195Z,100526.87
2018-12-16T19:56:29.352Z,100514.81
2018-12-16T19:58:53.146Z,100533.36
2018-12-16T20:01:16.821Z,100533.65
2018-12-16T20:03:41.864Z,100539.75
2018-12-16T20:06:10.602Z,100546.24
2018-12-16T20:08:33.716Z,100543.21
2018-12-16T20:10:56.849Z,100552.23
2018-12-16T20:13:20.014Z,100551.53
2018-12-16T20:15:43.189Z,100550.81
2018-12-16T20:18:06.492Z,100560.34
2018-12-16T20:20:30.538Z,100555.28
2018-12-16T20:22:53.676Z,100561.73
2018-12-16T20:25:16.860Z,100564.12
2018-12-16T20:27:39.979Z,100561.39
2018-12-16T20:30:03.328Z,100557.33
2018-12-16T20:32:26.478Z,100565.97
2018-12-16T20:34:49.574Z,100560.95
2018-12-16T20:37:12.737Z,100564.03
2018-12-16T20:39:35.851Z,100552.06
2018-12-16T20:41:59.054Z,100564.52
2018-12-16T20:44:22.183Z,100563.61
2018-12-16T20:46:45.309Z,100569.21
2018-12-16T20:49:08.533Z,100562.61
2018-12-16T20:51:31.695Z,100559.09
2018-12-16T20:53:54.942Z,100562.97
2018-12-16T20:56:18.065Z,100566.55
2018-12-16T20:58:41.188Z,100561.34
2018-12-16T21:01:04.410Z,100566.87
2018-12-16T21:03:27.532Z,100564.00
2018-12-16T21:05:50.698Z,100567.00
2018-12-16T21:08:13.838Z,100562.45
2018-12-16T21:10:36.973Z,100565.76
2018-12-16T21:13:06.060Z,100571.55
2018-12-16T21:15:34.752Z,100572.66
2018-12-16T21:18:03.264Z,100578.44
2018-12-16T21:20:26.528Z,100582.78
2018-12-16T21:22:49.701Z,100590.85
2018-12-16T21:25:13.005Z,100594.83
2018-12-16T21:27:36.201Z,100596.57
2018-12-16T21:30:00.285Z,100593.76
2018-12-16T21:32:30.122Z,100599.81
2018-12-16T21:34:53.270Z,100593.05
2018-12-16T21:37:16.395Z,100592.89
2018-12-16T21:39:39.567Z,100587.29
2018-12-16T21:42:02.708Z,100594.97
2018-12-16T21:44:25.815Z,100595.78
2018-12-16T21:46:49.054Z,100598.14
2018-12-16T21:49:12.167Z,100602.65
2018-12-16T21:51:35.306Z,100603.81
2018-12-16T21:53:58.466Z,100602.77
2018-12-16T21:56:21.589Z,100604.59
2018-12-16T21:58:44.805Z,100604.83
2018-12-16T22:01:07.922Z,100610.37
2018-12-16T22:03:31.074Z,100612.34
2018-12-16T22:05:54.270Z,100617.50
2018-12-16T22:08:18.852Z,100618.41
2018-12-16T22:10:41.976Z,100619.59
2018-12-16T22:13:05.092Z,100620.06
2018-12-16T22:15:28.199Z,100623.26
2018-12-16T22:17:51.312Z,100614.25
2018-12-16T22:20:14.730Z,100622.41
2018-12-16T22:22:37.835Z,100618.70
2018-12-16T22:25:00.953Z,100622.39
2018-12-16T22:27:24.089Z,100619.34
2018-12-16T22:29:47.204Z,100615.93
2018-12-16T22:32:10.630Z,100623.25
2018-12-16T22:34:33.775Z,100626.05
2018-12-16T22:36:56.933Z,100627.59
2018-12-16T22:39:20.061Z,100624.66
2018-12-16T22:41:43.200Z,100625.58
2018-12-16T22:44:06.664Z,100629.82
2018-12-16T22:46:29.845Z,100636.17
2018-12-16T22:48:52.949Z,100629.19
2018-12-16T22:51:16.192Z,100631.14
2018-12-16T22:53:39.347Z,100631.47
2018-12-16T22:56:02.629Z,100631.92
2018-12-16T22:58:25.756Z,100628.98
2018-12-16T23:00:54.773Z,100636.57
2018-12-16T23:03:17.907Z,100636.16
2018-12-16T23:05:41.034Z,100632.91
2018-12-16T23:08:04.202Z,100617.78
2018-12-16T23:10:27.324Z,100628.00
2018-12-16T23:12:50.581Z,100638.22
2018-12-16T23:15:13.754Z,100643.25
2018-12-16T23:17:36.874Z,100640.55
2018-12-16T23:20:05.674Z,100648.12
2018-12-16T23:22:28.812Z,100648.13
2018-12-16T23:24:52.090Z,100656.69
2018-12-16T23:27:15.225Z,100653.95
2018-12-16T23:29:38.339Z,100649.00
2018-12-16T23:32:01.502Z,100655.73
2018-12-16T23:34:24.619Z,100655.34
2018-12-16T23:36:47.836Z,100652.55
2018-12-16T23:39:11.001Z,100648.94
2018-12-16T23:41:34.109Z,100646.53
2018-12-16T23:43:57.243Z,100656.44
2018-12-16T23:46:20.380Z,100647.98
2018-12-16T23:48:43.521Z,100651.11
2018-12-16T23:51:06.639Z,100651.45
2018-12-16T23:53:29.759Z,100649.06
2018-12-16T23:55:52.870Z,100653.16
2018-12-16T23:58:16.040Z,100649.48
